createdAt,value
2022-11-28T00:00:21.279Z,85.35
2022-11-28T00:02:45.081Z,85.28
2022-11-28T00:04:51.219Z,85.17
2022-11-28T00:06:54.684Z,85.12
2022-11-28T00:08:59.725Z,85.43
2022-11-28T00:11:07.092Z,85.59
2022-11-28T00:13:09.951Z,85.52
2022-11-28T00:15:12.876Z,85.70
2022-11-28T00:17:15.663Z,85.60
2022-11-28T00:19:18.564Z,85.66
2022-11-28T00:21:22.631Z,85.21
2022-11-28T00:23:25.616Z,85.15
2022-11-28T00:25:28.683Z,85.13
2022-11-28T00:27:33.867Z,84.90
2022-11-28T00:29:36.842Z,84.59
2022-11-28T00:31:44.888Z,84.88
2022-11-28T00:33:48.621Z,84.99
2022-11-28T00:35:51.523Z,85.31
2022-11-28T00:37:54.385Z,85.30
2022-11-28T00:39:57.838Z,85.29
2022-11-28T00:42:00.753Z,85.14
2022-11-28T00:44:03.770Z,84.93
2022-11-28T00:46:08.038Z,84.61
2022-11-28T00:48:10.939Z,84.54
2022-11-28T00:50:14.050Z,84.07
2022-11-28T00:52:16.952Z,84.05
2022-11-28T00:54:19.751Z,84.27
2022-11-28T00:56:25.382Z,84.38
2022-11-28T00:58:28.178Z,84.45
2022-11-28T01:00:31.221Z,84.61
2022-11-28T01:02:34.327Z,84.64
2022-11-28T01:04:37.206Z,84.50
2022-11-28T01:06:46.490Z,84.36
2022-11-28T01:08:49.415Z,84.27
2022-11-28T01:10:52.382Z,83.86
2022-11-28T01:12:55.183Z,83.75
2022-11-28T01:14:58.533Z,83.74
2022-11-28T01:17:01.413Z,83.66
2022-11-28T01:19:05.357Z,83.69
2022-11-28T01:21:08.720Z,83.77
2022-11-28T01:23:11.859Z,83.75
2022-11-28T01:25:14.678Z,83.90
2022-11-28T01:27:17.697Z,83.94
2022-11-28T01:29:20.643Z,84.10
2022-11-28T01:31:26.291Z,84.10
2022-11-28T01:33:29.130Z,84.13
2022-11-28T01:35:31.936Z,84.19
2022-11-28T01:37:34.746Z,83.98
2022-11-28T01:39:38.338Z,83.88
2022-11-28T01:41:41.328Z,83.75
2022-11-28T01:44:08.258Z,83.82
2022-11-28T01:46:11.154Z,83.99
2022-11-28T01:48:24.409Z,84.07
2022-11-28T01:50:29.751Z,84.16
2022-11-28T01:52:33.941Z,84.23
2022-11-28T01:54:38.978Z,84.25
2022-11-28T01:56:47.730Z,84.19
2022-11-28T01:58:54.834Z,83.92
2022-11-28T02:00:58.241Z,83.78
2022-11-28T02:03:06.730Z,83.64
2022-11-28T02:05:09.894Z,83.47
2022-11-28T02:07:13.724Z,83.38
2022-11-28T02:09:17.034Z,83.29
2022-11-28T02:11:29.056Z,83.26
2022-11-28T02:13:44.739Z,83.40
2022-11-28T02:16:31.281Z,83.31
2022-11-28T02:18:59.523Z,83.52
2022-11-28T02:21:09.011Z,83.50
2022-11-28T02:23:33.016Z,83.18
2022-11-28T02:26:00.637Z,83.17
2022-11-28T02:28:21.625Z,82.84
2022-11-28T02:30:48.703Z,82.67
2022-11-28T02:33:07.984Z,82.79
2022-11-28T02:35:25.476Z,82.93
2022-11-28T02:37:44.362Z,82.96
2022-11-28T02:39:50.269Z,83.18
2022-11-28T02:42:18.486Z,83.26
2022-11-28T02:44:56.446Z,83.34
2022-11-28T02:47:05.888Z,83.62
2022-11-28T02:49:33.394Z,83.83
2022-11-28T02:52:03.597Z,83.83
2022-11-28T02:54:10.198Z,84.00
2022-11-28T02:56:13.583Z,84.06
2022-11-28T02:58:18.651Z,83.78
2022-11-28T03:00:36.356Z,83.76
2022-11-28T03:02:39.929Z,83.66
2022-11-28T03:04:42.935Z,83.44
2022-11-28T03:07:00.040Z,83.47
2022-11-28T03:09:24.400Z,83.64
2022-11-28T03:11:42.920Z,83.67
2022-11-28T03:14:09.177Z,83.84
2022-11-28T03:16:28.978Z,84.09
2022-11-28T03:18:51.560Z,84.26
2022-11-28T03:21:02.160Z,84.31
2022-11-28T03:23:10.625Z,84.21
2022-11-28T03:25:16.149Z,84.14
2022-11-28T03:27:26.439Z,84.04
2022-11-28T03:29:37.428Z,83.78
2022-11-28T03:31:45.749Z,83.79
2022-11-28T03:33:53.962Z,84.18
2022-11-28T03:36:03.804Z,84.24
2022-11-28T03:38:18.811Z,84.46
2022-11-28T03:40:33.659Z,84.67
2022-11-28T03:42:41.561Z,84.62
2022-11-28T03:45:17.913Z,84.36
2022-11-28T03:47:24.618Z,84.28
2022-11-28T03:49:36.113Z,83.93
2022-11-28T03:52:07.780Z,84.06
2022-11-28T03:54:28.022Z,83.75
2022-11-28T03:56:36.982Z,83.74
2022-11-28T03:59:04.273Z,83.50
2022-11-28T04:01:22.171Z,83.89
2022-11-28T04:03:48.391Z,84.11
2022-11-28T04:06:05.761Z,84.15
2022-11-28T04:08:18.934Z,84.46
2022-11-28T04:10:44.141Z,84.02
2022-11-28T04:13:01.528Z,84.20
2022-11-28T04:15:17.155Z,84.35
2022-11-28T04:17:32.869Z,84.17
2022-11-28T04:19:58.598Z,84.21
2022-11-28T04:22:21.412Z,84.71
2022-11-28T04:24:30.033Z,84.59
2022-11-28T04:26:37.152Z,84.96
2022-11-28T04:28:40.284Z,84.97
2022-11-28T04:30:45.653Z,84.80
2022-11-28T04:32:52.196Z,84.67
2022-11-28T04:35:04.807Z,84.61
2022-11-28T04:37:10.033Z,84.54
2022-11-28T04:39:17.734Z,84.48
2022-11-28T04:41:26.677Z,84.54
2022-11-28T04:43:41.830Z,84.87
2022-11-28T04:45:50.146Z,84.92
2022-11-28T04:47:53.299Z,84.78
2022-11-28T04:49:56.279Z,84.92
2022-11-28T04:52:07.267Z,84.87
2022-11-28T04:54:43.001Z,85.26
2022-11-28T04:56:52.820Z,84.78
2022-11-28T04:58:56.084Z,85.03
2022-11-28T05:01:00.354Z,84.83
2022-11-28T05:03:04.789Z,84.54
2022-11-28T05:05:15.687Z,84.74
2022-11-28T05:07:18.575Z,84.69
2022-11-28T05:09:21.444Z,85.33
2022-11-28T05:11:24.886Z,85.59
2022-11-28T05:13:27.656Z,85.35
2022-11-28T05:15:30.538Z,85.43
2022-11-28T05:17:35.669Z,85.59
2022-11-28T05:19:41.842Z,85.49
2022-11-28T05:21:45.065Z,85.76
2022-11-28T05:23:48.783Z,85.64
2022-11-28T05:25:51.624Z,85.66
2022-11-28T05:27:57.498Z,85.39
2022-11-28T05:30:00.332Z,85.38
2022-11-28T05:32:04.217Z,85.21
2022-11-28T05:34:07.041Z,85.36
2022-11-28T05:36:13.331Z,85.39
2022-11-28T05:38:16.495Z,85.50
2022-11-28T05:40:19.353Z,85.57
2022-11-28T05:42:22.212Z,86.18
2022-11-28T05:44:27.239Z,85.68
2022-11-28T05:46:30.512Z,85.80
2022-11-28T05:48:33.336Z,85.70
2022-11-28T05:50:40.150Z,85.42
2022-11-28T05:52:43.048Z,85.34
2022-11-28T05:54:45.878Z,85.41
2022-11-28T05:56:48.706Z,85.84
2022-11-28T05:58:53.311Z,85.72
2022-11-28T06:00:56.083Z,85.91
2022-11-28T06:03:01.487Z,85.79
2022-11-28T06:05:27.139Z,85.93
2022-11-28T06:07:27.835Z,85.90
2022-11-28T06:09:30.630Z,85.83
2022-11-28T06:11:34.370Z,85.63
2022-11-28T06:13:37.241Z,85.80
2022-11-28T06:15:44.965Z,85.74
2022-11-28T06:17:47.756Z,86.15
2022-11-28T06:19:50.649Z,85.89
2022-11-28T06:21:53.666Z,86.08
2022-11-28T06:23:58.101Z,85.91
2022-11-28T06:26:06.348Z,85.83
2022-11-28T06:28:09.412Z,85.85
2022-11-28T06:30:12.545Z,86.08
2022-11-28T06:32:18.933Z,86.16
2022-11-28T06:34:24.870Z,87.09
2022-11-28T06:36:30.771Z,86.74
2022-11-28T06:38:33.654Z,86.66
2022-11-28T06:40:38.805Z,86.66
2022-11-28T06:42:41.557Z,86.16
2022-11-28T06:44:44.340Z,86.47
2022-11-28T06:46:47.258Z,86.06
2022-11-28T06:48:51.629Z,85.94
2022-11-28T06:50:55.023Z,86.22
2022-11-28T06:52:57.850Z,86.54
2022-11-28T06:55:00.746Z,86.37
2022-11-28T06:57:03.870Z,86.50
2022-11-28T06:59:06.891Z,86.56
2022-11-28T07:01:20.444Z,86.31
2022-11-28T07:03:23.355Z,86.27
2022-11-28T07:05:31.093Z,86.18
2022-11-28T07:07:41.741Z,86.14
2022-11-28T07:09:55.911Z,86.25
2022-11-28T07:11:58.848Z,86.21
2022-11-28T07:14:02.826Z,86.41
2022-11-28T07:16:06.236Z,86.46
2022-11-28T07:18:09.013Z,86.62
2022-11-28T07:20:12.549Z,86.57
2022-11-28T07:22:15.387Z,86.42
2022-11-28T07:24:20.037Z,86.13
2022-11-28T07:26:23.289Z,86.21
2022-11-28T07:28:27.122Z,86.20
2022-11-28T07:30:29.937Z,86.45
2022-11-28T07:32:32.706Z,86.06
2022-11-28T07:34:35.926Z,86.22
2022-11-28T07:36:38.722Z,86.47
2022-11-28T07:38:41.711Z,86.24
2022-11-28T07:40:44.456Z,86.32
2022-11-28T07:42:48.914Z,86.19
2022-11-28T07:44:51.721Z,85.79
2022-11-28T07:46:54.576Z,85.84
2022-11-28T07:48:57.474Z,85.77
2022-11-28T07:51:04.339Z,86.08
2022-11-28T07:53:07.501Z,85.68
2022-11-28T07:55:10.450Z,85.90
2022-11-28T07:57:13.608Z,85.72
2022-11-28T07:59:16.900Z,85.65
2022-11-28T08:01:22.538Z,85.57
2022-11-28T08:03:25.311Z,85.77
2022-11-28T08:05:28.157Z,85.59
2022-11-28T08:07:31.021Z,85.55
2022-11-28T08:09:33.962Z,85.31
2022-11-28T08:11:36.954Z,85.09
2022-11-28T08:13:40.248Z,85.26
2022-11-28T08:15:43.074Z,84.86
2022-11-28T08:17:46.029Z,84.19
2022-11-28T08:19:48.805Z,84.17
2022-11-28T08:21:51.684Z,84.24
2022-11-28T08:23:56.243Z,84.16
2022-11-28T08:26:03.289Z,83.98
2022-11-28T08:28:06.080Z,83.91
2022-11-28T08:30:09.685Z,83.44
2022-11-28T08:32:12.646Z,83.28
2022-11-28T08:34:15.496Z,83.60
2022-11-28T08:36:19.560Z,83.86
2022-11-28T08:38:25.340Z,83.99
2022-11-28T08:40:28.886Z,83.87
2022-11-28T08:42:31.654Z,83.41
2022-11-28T08:44:34.459Z,82.12
2022-11-28T08:46:37.278Z,82.65
2022-11-28T08:48:41.237Z,82.36
2022-11-28T08:50:50.651Z,82.14
2022-11-28T08:52:53.585Z,81.84
2022-11-28T08:54:56.472Z,81.68
2022-11-28T08:56:59.796Z,81.25
2022-11-28T08:59:02.907Z,81.26
2022-11-28T09:01:15.039Z,81.13
2022-11-28T09:03:20.173Z,80.48
2022-11-28T09:05:22.969Z,80.84
2022-11-28T09:07:25.839Z,81.02
2022-11-28T09:09:32.703Z,80.95
2022-11-28T09:11:47.085Z,80.77
2022-11-28T09:13:50.326Z,80.91
2022-11-28T09:15:53.864Z,80.87
2022-11-28T09:17:56.819Z,80.57
2022-11-28T09:19:59.591Z,80.43
2022-11-28T09:22:02.468Z,80.05
2022-11-28T09:24:06.541Z,79.39
2022-11-28T09:26:11.198Z,79.47
2022-11-28T09:28:13.945Z,79.19
2022-11-28T09:30:17.095Z,79.12
2022-11-28T09:32:19.885Z,78.67
2022-11-28T09:34:22.658Z,78.47
2022-11-28T09:36:25.543Z,78.57
2022-11-28T09:38:28.372Z,78.51
2022-11-28T09:40:42.131Z,78.03
2022-11-28T09:42:46.960Z,78.10
2022-11-28T09:45:02.857Z,77.97
2022-11-28T09:47:14.057Z,78.24
2022-11-28T09:49:39.856Z,78.15
2022-11-28T09:51:53.073Z,78.53
2022-11-28T09:54:01.471Z,77.30
2022-11-28T09:56:15.856Z,76.89
2022-11-28T09:58:32.232Z,75.51
2022-11-28T10:00:52.630Z,76.01
2022-11-28T10:03:36.364Z,76.30
2022-11-28T10:05:51.433Z,74.92
2022-11-28T10:08:29.503Z,74.91
2022-11-28T10:10:35.191Z,72.52
2022-11-28T10:12:43.135Z,71.04
2022-11-28T10:15:14.349Z,70.52
2022-11-28T10:17:23.336Z,71.85
2022-11-28T10:19:55.134Z,71.09
2022-11-28T10:22:02.250Z,72.18
2022-11-28T10:24:13.929Z,73.13
2022-11-28T10:26:32.320Z,71.82
2022-11-28T10:28:38.952Z,71.71
2022-11-28T10:30:46.467Z,71.79
2022-11-28T10:32:57.813Z,70.77
2022-11-28T10:35:04.625Z,67.92
2022-11-28T10:37:24.887Z,68.47
2022-11-28T10:39:28.409Z,67.78
2022-11-28T10:41:40.538Z,68.85
2022-11-28T10:44:08.122Z,68.75
2022-11-28T10:46:38.827Z,67.40
2022-11-28T10:49:12.153Z,67.92
2022-11-28T10:51:27.407Z,69.30
2022-11-28T10:53:38.196Z,69.91
2022-11-28T10:56:11.751Z,69.52
2022-11-28T10:58:29.606Z,69.06
2022-11-28T11:00:35.306Z,69.72
2022-11-28T11:02:45.743Z,70.75
2022-11-28T11:04:48.891Z,70.04
2022-11-28T11:07:16.232Z,69.28
2022-11-28T11:09:20.945Z,70.02
2022-11-28T11:11:32.398Z,68.87
2022-11-28T11:13:56.745Z,68.66
2022-11-28T11:16:11.714Z,68.75
2022-11-28T11:18:32.466Z,68.49
2022-11-28T11:20:39.324Z,68.70
2022-11-28T11:22:56.129Z,68.80
2022-11-28T11:25:05.602Z,69.51
2022-11-28T11:27:18.466Z,69.08
2022-11-28T11:29:37.013Z,68.35
2022-11-28T11:31:44.369Z,68.69
2022-11-28T11:33:50.554Z,67.82
2022-11-28T11:35:53.551Z,68.44
2022-11-28T11:38:27.376Z,68.49
2022-11-28T11:40:30.231Z,68.18
2022-11-28T11:42:33.587Z,68.06
2022-11-28T11:44:38.656Z,67.75
2022-11-28T11:46:55.904Z,67.30
2022-11-28T11:48:58.951Z,66.88
2022-11-28T11:51:02.105Z,66.70
2022-11-28T11:53:14.322Z,67.09
2022-11-28T11:55:18.288Z,66.89
2022-11-28T11:57:33.260Z,67.61
2022-11-28T11:59:49.646Z,68.11
2022-11-28T12:02:00.579Z,68.36
2022-11-28T12:04:23.723Z,67.54
2022-11-28T12:06:37.285Z,67.74
2022-11-28T12:09:09.072Z,67.78
2022-11-28T12:11:18.584Z,68.23
2022-11-28T12:13:27.684Z,68.88
2022-11-28T12:16:26.518Z,68.71
2022-11-28T12:19:00.711Z,68.78
2022-11-28T12:21:14.753Z,69.53
2022-11-28T12:23:38.651Z,69.60
2022-11-28T12:25:53.684Z,69.69
2022-11-28T12:29:47.035Z,70.04
2022-11-28T12:34:13.580Z,69.29
2022-11-28T12:38:11.081Z,69.30
2022-11-28T12:42:21.956Z,69.61
2022-11-28T12:45:54.763Z,68.79
2022-11-28T12:49:48.512Z,68.59
2022-11-28T12:53:45.754Z,68.18
2022-11-28T12:56:18.130Z,68.38
2022-11-28T12:58:35.737Z,68.47
2022-11-28T13:01:05.985Z,68.58
2022-11-28T13:03:12.723Z,68.37
2022-11-28T13:05:24.685Z,68.40
2022-11-28T13:08:03.262Z,68.62
2022-11-28T13:10:09.208Z,68.61
2022-11-28T13:13:07.238Z,68.46
2022-11-28T13:15:22.457Z,67.58
2022-11-28T13:17:37.428Z,67.45
2022-11-28T13:20:06.700Z,67.61
2022-11-28T13:22:27.767Z,67.44
2022-11-28T13:24:40.143Z,66.95
2022-11-28T13:27:00.179Z,67.65
2022-11-28T13:29:08.928Z,67.95
2022-11-28T13:31:26.850Z,68.07
2022-11-28T13:33:52.656Z,68.13
2022-11-28T13:35:58.617Z,68.47
2022-11-28T13:40:42.808Z,68.68
2022-11-28T13:43:06.751Z,68.78
2022-11-28T13:45:26.673Z,68.93
2022-11-28T13:47:35.388Z,69.01
2022-11-28T13:49:38.168Z,69.00
2022-11-28T13:51:41.139Z,69.20
2022-11-28T13:53:45.774Z,69.32
2022-11-28T13:55:51.154Z,69.41
2022-11-28T13:57:54.025Z,69.56
2022-11-28T14:00:07.820Z,69.47
2022-11-28T14:02:23.953Z,69.77
2022-11-28T14:04:29.372Z,70.22
2022-11-28T14:06:46.483Z,70.64
2022-11-28T14:09:08.556Z,71.08
2022-11-28T14:11:38.880Z,71.07
2022-11-28T14:14:17.065Z,70.98
2022-11-28T14:16:54.006Z,70.89
2022-11-28T14:19:14.881Z,71.21
2022-11-28T14:21:40.971Z,71.22
2022-11-28T14:23:52.741Z,71.39
2022-11-28T14:25:56.523Z,71.32
2022-11-28T14:28:02.833Z,71.67
2022-11-28T14:30:42.410Z,71.68
2022-11-28T14:32:45.259Z,71.92
2022-11-28T14:34:48.926Z,72.19
2022-11-28T14:37:20.880Z,72.49
2022-11-28T14:39:35.034Z,72.77
2022-11-28T14:42:02.748Z,72.90
2022-11-28T14:44:45.793Z,73.19
2022-11-28T14:47:07.151Z,73.41
2022-11-28T14:49:20.695Z,73.19
2022-11-28T14:51:48.367Z,73.39
2022-11-28T14:53:52.013Z,73.42
2022-11-28T14:55:54.841Z,73.34
2022-11-28T14:58:05.364Z,73.40
2022-11-28T15:00:16.461Z,73.48
2022-11-28T15:02:37.377Z,73.73
2022-11-28T15:05:07.430Z,74.08
2022-11-28T15:07:32.107Z,74.47
2022-11-28T15:09:43.915Z,74.24
2022-11-28T15:12:05.605Z,74.58
2022-11-28T15:14:14.304Z,74.57
2022-11-28T15:16:20.167Z,74.56
2022-11-28T15:18:26.271Z,74.53
2022-11-28T15:20:44.138Z,74.48
2022-11-28T15:22:47.070Z,74.61
2022-11-28T15:24:52.479Z,74.61
2022-11-28T15:26:58.723Z,74.70
2022-11-28T15:29:18.178Z,75.12
2022-11-28T15:31:23.349Z,75.45
2022-11-28T15:33:27.503Z,75.87
2022-11-28T15:35:30.831Z,76.08
2022-11-28T15:37:35.419Z,76.06
2022-11-28T15:39:40.981Z,76.17
2022-11-28T15:41:46.364Z,75.63
2022-11-28T15:43:49.647Z,75.78
2022-11-28T15:45:58.649Z,75.87
2022-11-28T15:48:02.199Z,75.61
2022-11-28T15:50:19.596Z,75.61
2022-11-28T15:52:22.372Z,75.99
2022-11-28T15:54:41.395Z,76.60
2022-11-28T15:56:57.361Z,76.46
2022-11-28T15:59:00.377Z,76.80
2022-11-28T16:01:33.544Z,76.72
2022-11-28T16:03:49.293Z,76.66
2022-11-28T16:05:54.631Z,77.71
2022-11-28T16:07:57.513Z,77.19
2022-11-28T16:10:04.719Z,76.88
2022-11-28T16:12:14.322Z,76.63
2022-11-28T16:14:26.273Z,76.51
2022-11-28T16:16:35.658Z,76.62
2022-11-28T16:18:43.419Z,77.02
2022-11-28T16:20:46.704Z,77.21
2022-11-28T16:22:49.639Z,77.53
2022-11-28T16:24:57.379Z,77.56
2022-11-28T16:27:05.764Z,77.37
2022-11-28T16:29:08.446Z,77.66
2022-11-28T16:31:12.525Z,77.83
2022-11-28T16:33:34.951Z,77.54
2022-11-28T16:35:39.008Z,77.29
2022-11-28T16:37:41.793Z,77.45
2022-11-28T16:39:44.958Z,77.40
2022-11-28T16:42:07.562Z,77.50
2022-11-28T16:44:14.504Z,77.90
2022-11-28T16:46:21.551Z,78.41
2022-11-28T16:48:27.208Z,78.72
2022-11-28T16:50:30.015Z,78.56
2022-11-28T16:52:32.963Z,78.52
2022-11-28T16:54:35.779Z,78.03
2022-11-28T16:56:38.537Z,78.16
2022-11-28T16:58:41.540Z,78.00
2022-11-28T17:00:50.383Z,77.84
2022-11-28T17:02:53.615Z,77.82
2022-11-28T17:04:57.756Z,77.39
2022-11-28T17:07:05.737Z,77.53
2022-11-28T17:09:11.948Z,77.37
2022-11-28T17:11:16.965Z,77.54
2022-11-28T17:13:19.763Z,77.88
2022-11-28T17:15:23.641Z,78.31
2022-11-28T17:17:27.932Z,78.44
2022-11-28T17:19:30.780Z,78.15
2022-11-28T17:21:39.252Z,77.94
2022-11-28T17:23:42.650Z,78.06
2022-11-28T17:25:45.410Z,78.21
2022-11-28T17:27:48.301Z,77.99
2022-11-28T17:29:51.169Z,78.18
2022-11-28T17:31:57.236Z,78.15
2022-11-28T17:34:00.033Z,78.19
2022-11-28T17:36:04.037Z,78.92
2022-11-28T17:38:06.903Z,79.73
2022-11-28T17:40:28.711Z,79.61
2022-11-28T17:42:31.957Z,79.28
2022-11-28T17:44:37.644Z,79.78
2022-11-28T17:46:40.453Z,79.43
2022-11-28T17:48:43.252Z,79.99
2022-11-28T17:50:48.670Z,79.79
2022-11-28T17:52:51.474Z,79.89
2022-11-28T17:55:00.857Z,81.42
2022-11-28T17:57:06.443Z,80.10
2022-11-28T17:59:11.773Z,79.57
2022-11-28T18:01:18.623Z,79.59
2022-11-28T18:03:21.875Z,79.97
2022-11-28T18:05:24.627Z,80.92
2022-11-28T18:07:27.634Z,83.04
2022-11-28T18:09:30.461Z,81.12
2022-11-28T18:11:33.319Z,80.90
2022-11-28T18:13:36.524Z,80.97
2022-11-28T18:15:39.815Z,80.82
2022-11-28T18:17:42.555Z,81.24
2022-11-28T18:19:46.984Z,80.99
2022-11-28T18:21:50.015Z,80.79
2022-11-28T18:23:53.005Z,81.06
2022-11-28T18:25:56.216Z,81.06
2022-11-28T18:27:59.409Z,81.30
2022-11-28T18:30:02.267Z,81.04
2022-11-28T18:32:05.049Z,81.33
2022-11-28T18:34:09.657Z,81.50
2022-11-28T18:36:15.221Z,81.34
2022-11-28T18:38:18.036Z,81.03
2022-11-28T18:40:20.813Z,80.63
2022-11-28T18:42:24.120Z,81.26
2022-11-28T18:44:27.048Z,81.39
2022-11-28T18:46:31.017Z,80.52
2022-11-28T18:48:37.649Z,80.58
2022-11-28T18:50:40.583Z,80.40
2022-11-28T18:52:43.324Z,80.69
2022-11-28T18:54:46.283Z,80.69
2022-11-28T18:56:49.496Z,80.78
2022-11-28T18:58:54.182Z,81.07
2022-11-28T19:00:57.168Z,81.54
2022-11-28T19:02:59.910Z,81.64
2022-11-28T19:05:02.766Z,81.17
2022-11-28T19:07:05.623Z,81.04
2022-11-28T19:09:12.418Z,80.93
2022-11-28T19:11:17.217Z,80.91
2022-11-28T19:13:20.272Z,80.83
2022-11-28T19:15:23.074Z,80.80
2022-11-28T19:17:25.977Z,80.60
2022-11-28T19:19:28.985Z,80.95
2022-11-28T19:21:34.676Z,81.06
2022-11-28T19:23:38.681Z,81.22
2022-11-28T19:25:42.607Z,81.59
2022-11-28T19:27:45.354Z,81.96
2022-11-28T19:29:48.176Z,81.67
2022-11-28T19:31:51.216Z,81.20
2022-11-28T19:34:06.643Z,80.98
2022-11-28T19:36:11.906Z,81.24
2022-11-28T19:38:14.756Z,80.79
2022-11-28T19:40:17.685Z,81.07
2022-11-28T19:42:20.622Z,80.93
2022-11-28T19:44:24.824Z,81.61
2022-11-28T19:46:31.884Z,81.62
2022-11-28T19:48:39.745Z,81.85
2022-11-28T19:50:49.226Z,81.71
2022-11-28T19:52:51.987Z,81.48
2022-11-28T19:54:54.836Z,81.45
2022-11-28T19:56:57.661Z,81.39
2022-11-28T19:59:00.823Z,81.18
2022-11-28T20:01:33.105Z,80.90
2022-11-28T20:03:37.826Z,80.89
2022-11-28T20:05:41.855Z,81.04
2022-11-28T20:07:44.823Z,81.40
2022-11-28T20:09:48.171Z,81.31
2022-11-28T20:11:50.987Z,81.83
2022-11-28T20:13:57.801Z,81.85
2022-11-28T20:16:04.792Z,81.86
2022-11-28T20:18:07.760Z,81.60
2022-11-28T20:20:11.011Z,81.59
2022-11-28T20:22:13.916Z,81.68
2022-11-28T20:24:16.683Z,81.25
2022-11-28T20:26:23.071Z,81.37
2022-11-28T20:28:26.027Z,82.02
2022-11-28T20:30:28.850Z,81.75
2022-11-28T20:32:31.624Z,81.84
2022-11-28T20:34:34.340Z,82.05
2022-11-28T20:36:37.274Z,82.30
2022-11-28T20:38:40.038Z,83.22
2022-11-28T20:40:42.753Z,82.91
2022-11-28T20:42:45.571Z,82.58
2022-11-28T20:44:48.296Z,82.75
2022-11-28T20:46:51.450Z,82.43
2022-11-28T20:48:56.704Z,84.13
2022-11-28T20:50:59.511Z,82.81
2022-11-28T20:53:02.440Z,82.73
2022-11-28T20:55:05.718Z,82.49
2022-11-28T20:57:23.717Z,82.84
2022-11-28T20:59:26.723Z,82.88
2022-11-28T21:01:33.436Z,82.78
2022-11-28T21:03:37.113Z,82.60
2022-11-28T21:05:40.076Z,82.61
2022-11-28T21:07:42.858Z,82.40
2022-11-28T21:09:45.718Z,82.22
2022-11-28T21:11:58.568Z,81.99
2022-11-28T21:14:02.912Z,81.94
2022-11-28T21:16:08.143Z,82.10
2022-11-28T21:18:12.838Z,82.24
2022-11-28T21:20:15.578Z,82.33
2022-11-28T21:22:18.464Z,82.75
2022-11-28T21:24:21.295Z,82.96
2022-11-28T21:26:30.124Z,82.97
2022-11-28T21:28:39.062Z,82.56
2022-11-28T21:30:44.174Z,82.48
2022-11-28T21:32:47.632Z,82.16
2022-11-28T21:34:50.412Z,82.20
2022-11-28T21:36:53.989Z,81.93
2022-11-28T21:39:01.796Z,81.80
2022-11-28T21:41:04.634Z,81.72
2022-11-28T21:43:07.433Z,81.80
2022-11-28T21:45:10.618Z,81.69
2022-11-28T21:47:13.456Z,81.87
2022-11-28T21:49:17.242Z,82.19
2022-11-28T21:51:22.788Z,82.24
2022-11-28T21:53:26.651Z,82.31
2022-11-28T21:55:29.407Z,82.08
2022-11-28T21:57:32.241Z,82.22
2022-11-28T21:59:35.031Z,82.04
2022-11-28T22:01:37.926Z,82.13
2022-11-28T22:03:41.927Z,82.38
2022-11-28T22:05:44.935Z,82.78
2022-11-28T22:07:47.787Z,83.26
2022-11-28T22:09:50.628Z,83.29
2022-11-28T22:11:53.313Z,83.56
2022-11-28T22:13:56.054Z,83.25
2022-11-28T22:15:58.808Z,83.00
2022-11-28T22:18:01.624Z,83.02
2022-11-28T22:20:06.110Z,82.88
2022-11-28T22:22:08.940Z,83.04
2022-11-28T22:24:12.259Z,83.23
2022-11-28T22:26:15.636Z,83.41
2022-11-28T22:28:18.440Z,83.60
2022-11-28T22:30:21.420Z,83.17
2022-11-28T22:32:24.415Z,83.32
2022-11-28T22:34:27.399Z,83.68
2022-11-28T22:36:32.198Z,83.92
2022-11-28T22:38:35.057Z,83.35
2022-11-28T22:40:38.080Z,83.15
2022-11-28T22:42:41.029Z,83.07
2022-11-28T22:44:44.198Z,83.18
2022-11-28T22:46:47.405Z,83.32
2022-11-28T22:48:51.970Z,83.26
2022-11-28T22:50:54.961Z,83.43
2022-11-28T22:52:57.709Z,83.35
2022-11-28T22:55:00.480Z,83.19
2022-11-28T22:57:03.409Z,83.67
2022-11-28T22:59:11.104Z,84.05
2022-11-28T23:01:17.681Z,83.54
2022-11-28T23:03:20.563Z,83.39
2022-11-28T23:05:23.818Z,83.27
2022-11-28T23:07:26.664Z,82.86
2022-11-28T23:09:29.633Z,82.94
2022-11-28T23:11:34.261Z,83.03
2022-11-28T23:13:38.118Z,82.76
2022-11-28T23:15:44.439Z,82.91
2022-11-28T23:17:50.230Z,83.29
2022-11-28T23:19:53.069Z,83.85
2022-11-28T23:21:55.958Z,83.66
2022-11-28T23:23:58.791Z,83.19
2022-11-28T23:26:10.115Z,83.28
2022-11-28T23:28:12.886Z,83.14
2022-11-28T23:30:15.731Z,83.01
2022-11-28T23:32:18.503Z,82.73
2022-11-28T23:34:21.284Z,82.74
2022-11-28T23:36:49.086Z,82.93
2022-11-28T23:38:55.262Z,83.21
2022-11-28T23:40:58.221Z,83.18
2022-11-28T23:43:01.140Z,83.15
2022-11-28T23:45:04.281Z,83.42
2022-11-28T23:47:07.102Z,83.23
2022-11-28T23:49:10.533Z,83.11
2022-11-28T23:51:19.001Z,82.74
2022-11-28T23:53:22.150Z,82.88
2022-11-28T23:55:24.901Z,82.55
2022-11-28T23:57:28.788Z,82.43
2022-11-28T23:59:31.718Z,82.33
